Terminal Aerodrome Forecast
Issued by NWS

Home | Current Version | Previous Version | Text Only | Print | Product List | Glossary On
Versions: 1 2 3 4 5 6 7 8 9 10 11 12 13 14 15 16 17
000
FTUS41 KBTV 200531
TAFMPV
TAF
KMPV 200531Z 2006/2106 VRB03KT 4SM BR OVC020
     FM200900 00000KT 2SM BR SCT008 OVC015
      TEMPO 2009/2013 OVC008
     FM201300 VRB03KT P6SM OVC020
     FM201900 16005KT P6SM SCT030 BKN035
     FM210300 VRB03KT 5SM BR SCT003 OVC020=

USA.gov is the U.S. government's official web portal to all federal, state and local government web resources and services.